Time;durP1;ratioP1;P1;durP2;ratioP2;P2;SDS_P1;SDS_P2;PMS_P1;PMS_P2;Temp;Humidity;BMP_temperature;BMP_pressure;BME280_temperature;BME280_humidity;BME280_pressure;Samples;Min_cycle;Max_cycle;Signal;HPM_P1;HPM_P2
2022/09/30 00:01:39;;;;;;;3.83;0.80;;;;;;;;;;5100392;28;20039;-66
2022/09/30 00:04:05;;;;;;;1.52;0.80;;;;;;;;;;5102945;28;20040;-65
2022/09/30 00:06:34;;;;;;;1.70;0.80;;;;;;;;;;5099779;28;20059;-65
2022/09/30 00:09:01;;;;;;;1.65;0.82;;;;;;;;;;5105169;28;20032;-63
2022/09/30 00:11:30;;;;;;;1.75;0.68;;;;;;;;;;5109511;28;20035;-63
2022/09/30 00:13:59;;;;;;;1.30;0.50;;;;;;;;;;5100240;28;20097;-69
2022/09/30 00:16:27;;;;;;;1.58;0.80;;;;;;;;;;5106600;28;20084;-62
2022/09/30 00:18:56;;;;;;;1.35;0.77;;;;;;;;;;5105667;27;20577;-66
2022/09/30 00:21:24;;;;;;;2.15;1.27;;;;;;;;;;5102879;28;20071;-63
2022/09/30 00:23:50;;;;;;;1.42;0.70;;;;;;;;;;5100954;28;20071;-63
2022/09/30 00:26:18;;;;;;;3.15;0.80;;;;;;;;;;5108723;28;20562;-68
2022/09/30 00:28:44;;;;;;;1.83;0.80;;;;;;;;;;5105823;28;20044;-65
2022/09/30 00:31:13;;;;;;;1.65;0.80;;;;;;;;;;5105830;28;20048;-64
2022/09/30 00:33:40;;;;;;;0.90;0.40;;;;;;;;;;5108128;28;20059;-67
2022/09/30 00:36:06;;;;;;;0.95;0.60;;;;;;;;;;5109322;28;20044;-63
2022/09/30 00:38:31;;;;;;;2.70;0.60;;;;;;;;;;5111776;28;20048;-63
2022/09/30 00:40:58;;;;;;;2.30;0.70;;;;;;;;;;5108804;28;20520;-62
2022/09/30 00:43:56;;;;;;;1.27;0.40;;;;;;;;;;5112046;28;20050;-66
2022/09/30 00:46:37;;;;;;;0.88;0.50;;;;;;;;;;5052810;28;20052;-61
2022/09/30 00:49:18;;;;;;;2.40;0.52;;;;;;;;;;5103752;28;20131;-63
2022/09/30 00:51:54;;;;;;;9.73;0.80;;;;;;;;;;5108416;28;20093;-61
2022/09/30 00:54:26;;;;;;;0.98;0.50;;;;;;;;;;5099153;28;20043;-61
2022/09/30 00:56:56;;;;;;;0.88;0.50;;;;;;;;;;5110447;28;20043;-61
2022/09/30 00:59:27;;;;;;;1.17;0.50;;;;;;;;;;5109135;28;20048;-63
2022/09/30 01:01:53;;;;;;;0.80;0.40;;;;;;;;;;5107302;28;20052;-65
2022/09/30 01:04:22;;;;;;;1.52;0.70;;;;;;;;;;5111666;28;20131;-67
2022/09/30 01:06:49;;;;;;;2.53;0.47;;;;;;;;;;5110068;28;20051;-65
2022/09/30 01:09:16;;;;;;;0.80;0.30;;;;;;;;;;5111568;28;20560;-62
2022/09/30 01:11:42;;;;;;;1.63;0.32;;;;;;;;;;5108589;27;20036;-63
2022/09/30 01:14:14;;;;;;;2.97;0.57;;;;;;;;;;5108569;28;20043;-65
2022/09/30 01:16:58;;;;;;;0.45;0.38;;;;;;;;;;5108711;28;20040;-61
2022/09/30 01:19:57;;;;;;;1.95;0.30;;;;;;;;;;5110997;28;20489;-63
2022/09/30 01:22:51;;;;;;;1.13;0.40;;;;;;;;;;5105959;28;20258;-65
2022/09/30 01:25:52;;;;;;;1.92;0.52;;;;;;;;;;5098445;28;20052;-62
2022/09/30 01:28:39;;;;;;;0.20;0.17;;;;;;;;;;5102691;28;20040;-63
2022/09/30 01:31:27;;;;;;;0.38;0.35;;;;;;;;;;5102629;28;20055;-64
2022/09/30 01:34:13;;;;;;;0.32;0.20;;;;;;;;;;5104280;28;20075;-62
2022/09/30 01:37:08;;;;;;;4.47;0.20;;;;;;;;;;5101133;28;20039;-65
2022/09/30 01:39:45;;;;;;;1.33;0.28;;;;;;;;;;5106826;28;20060;-64
2022/09/30 01:42:30;;;;;;;0.70;0.17;;;;;;;;;;5107657;28;20047;-63
2022/09/30 01:45:17;;;;;;;;;;;;;;;;;;5110033;28;20054;-61
2022/09/30 01:48:05;;;;;;;0.30;0.22;;;;;;;;;;5104334;28;20266;-63
2022/09/30 01:50:33;;;;;;;0.63;0.10;;;;;;;;;;5108750;28;20044;-62
2022/09/30 01:53:27;;;;;;;0.10;0.03;;;;;;;;;;5110365;28;20130;-63
2022/09/30 01:56:10;;;;;;;0.28;0.20;;;;;;;;;;5104904;27;20458;-62
2022/09/30 01:58:38;;;;;;;0.60;0.20;;;;;;;;;;5107531;28;20052;-61
2022/09/30 02:01:10;;;;;;;1.58;0.20;;;;;;;;;;5107465;28;20043;-63
2022/09/30 02:03:40;;;;;;;1.55;0.20;;;;;;;;;;5104760;28;20158;-64
2022/09/30 02:06:11;;;;;;;0.40;0.20;;;;;;;;;;5109318;28;20053;-61
2022/09/30 02:09:06;;;;;;;0.20;0.15;;;;;;;;;;5108902;28;20048;-64
2022/09/30 02:11:35;;;;;;;0.60;0.30;;;;;;;;;;5098932;28;20067;-63
2022/09/30 02:14:03;;;;;;;0.85;0.20;;;;;;;;;;5106737;28;20386;-62
2022/09/30 02:16:40;;;;;;;0.80;0.20;;;;;;;;;;5106907;28;20055;-63
2022/09/30 02:19:39;;;;;;;0.90;0.30;;;;;;;;;;5104119;28;20120;-62
2022/09/30 02:22:13;;;;;;;0.57;0.20;;;;;;;;;;5095727;28;20052;-64
2022/09/30 02:24:42;;;;;;;0.52;0.10;;;;;;;;;;5095338;28;20047;-63
2022/09/30 02:27:27;;;;;;;1.80;0.10;;;;;;;;;;5105749;28;20070;-61
2022/09/30 02:29:57;;;;;;;1.95;0.28;;;;;;;;;;5105670;28;20058;-63
2022/09/30 02:32:30;;;;;;;2.53;0.10;;;;;;;;;;5102168;28;20347;-66
2022/09/30 02:35:01;;;;;;;0.97;0.20;;;;;;;;;;5107329;28;20043;-65
2022/09/30 02:37:34;;;;;;;0.68;0.30;;;;;;;;;;5105689;28;20338;-66
2022/09/30 02:40:25;;;;;;;1.23;0.22;;;;;;;;;;5110420;28;20052;-60
2022/09/30 02:42:51;;;;;;;0.65;0.28;;;;;;;;;;5103526;28;20040;-62
2022/09/30 02:45:21;;;;;;;0.47;0.20;;;;;;;;;;5106795;28;20086;-63
2022/09/30 02:47:57;;;;;;;0.52;0.10;;;;;;;;;;5107304;28;20131;-67
2022/09/30 02:50:31;;;;;;;0.88;0.30;;;;;;;;;;5106164;28;20055;-62
2022/09/30 02:53:03;;;;;;;0.45;0.30;;;;;;;;;;5105724;28;20096;-63
2022/09/30 02:56:05;;;;;;;0.35;0.20;;;;;;;;;;5106014;28;20055;-62
2022/09/30 02:58:33;;;;;;;4.13;0.35;;;;;;;;;;5100838;28;20044;-67
2022/09/30 03:00:59;;;;;;;2.83;0.40;;;;;;;;;;5107679;28;20048;-61
2022/09/30 03:03:31;;;;;;;3.22;0.22;;;;;;;;;;5108568;28;20040;-63
2022/09/30 03:05:57;;;;;;;0.65;0.10;;;;;;;;;;5105972;28;20055;-61
2022/09/30 03:08:23;;;;;;;1.13;0.20;;;;;;;;;;5104847;28;20061;-63
2022/09/30 03:10:50;;;;;;;0.90;0.65;;;;;;;;;;5105227;28;20047;-69
2022/09/30 03:13:43;;;;;;;0.25;0.20;;;;;;;;;;5101624;28;20622;-63
2022/09/30 03:16:09;;;;;;;1.13;0.20;;;;;;;;;;5101621;28;20071;-63
2022/09/30 03:19:08;;;;;;;0.10;0.08;;;;;;;;;;5104292;28;20086;-67
2022/09/30 03:21:46;;;;;;;0.55;0.28;;;;;;;;;;5040005;28;20085;-64
2022/09/30 03:24:45;;;;;;;4.47;0.30;;;;;;;;;;5044327;28;20040;-65
2022/09/30 03:27:41;;;;;;;2.58;0.17;;;;;;;;;;5037618;28;20076;-63
2022/09/30 03:30:20;;;;;;;2.65;0.50;;;;;;;;;;5041208;28;20121;-67
2022/09/30 03:33:07;;;;;;;0.73;0.30;;;;;;;;;;5042476;28;20066;-63
2022/09/30 03:36:28;;;;;;;1.50;0.17;;;;;;;;;;5032852;28;20049;-66
2022/09/30 03:39:26;;;;;;;0.55;0.30;;;;;;;;;;5009569;28;20056;-65
2022/09/30 03:42:00;;;;;;;0.85;0.25;;;;;;;;;;5041504;28;20398;-66
2022/09/30 03:44:31;;;;;;;;;;;;;;;;;;5044442;28;20132;-61
2022/09/30 03:47:01;;;;;;;0.95;0.25;;;;;;;;;;5043087;28;19940;-63
2022/09/30 03:49:33;;;;;;;2.55;0.35;;;;;;;;;;5036329;28;20402;-62
2022/09/30 03:52:03;;;;;;;5.13;0.70;;;;;;;;;;5041035;28;20115;-63
2022/09/30 03:54:30;;;;;;;0.70;0.20;;;;;;;;;;5043859;28;20052;-63
2022/09/30 03:56:56;;;;;;;4.50;0.43;;;;;;;;;;5068034;28;20078;-61
2022/09/30 03:59:24;;;;;;;3.25;0.57;;;;;;;;;;5094469;28;20044;-64
2022/09/30 04:01:51;;;;;;;6.47;0.47;;;;;;;;;;5101147;28;20122;-66
2022/09/30 04:04:17;;;;;;;6.55;0.47;;;;;;;;;;5100465;28;20039;-61
2022/09/30 04:06:42;;;;;;;4.82;0.30;;;;;;;;;;5108568;28;20126;-62
2022/09/30 04:09:08;;;;;;;1.58;0.40;;;;;;;;;;5101751;28;20043;-63
2022/09/30 04:11:34;;;;;;;1.75;0.40;;;;;;;;;;5111377;28;20067;-63
2022/09/30 04:14:00;;;;;;;3.75;0.40;;;;;;;;;;5111971;28;20496;-63
2022/09/30 04:16:30;;;;;;;1.75;0.38;;;;;;;;;;5099945;28;20048;-63
2022/09/30 04:18:55;;;;;;;3.22;0.40;;;;;;;;;;5100858;28;20040;-63
2022/09/30 04:21:22;;;;;;;2.50;0.40;;;;;;;;;;5103663;28;20040;-62
2022/09/30 04:23:48;;;;;;;1.17;0.35;;;;;;;;;;5108559;28;20060;-64
2022/09/30 04:26:16;;;;;;;0.28;0.20;;;;;;;;;;5113383;28;20096;-66
2022/09/30 04:28:42;;;;;;;0.43;0.43;;;;;;;;;;5112076;28;20048;-65
2022/09/30 04:31:10;;;;;;;0.52;0.40;;;;;;;;;;5103042;28;20512;-63
2022/09/30 04:33:37;;;;;;;0.60;0.20;;;;;;;;;;5111384;28;20047;-65
2022/09/30 04:36:03;;;;;;;1.35;0.40;;;;;;;;;;5110925;28;20104;-63
2022/09/30 04:38:30;;;;;;;7.40;0.30;;;;;;;;;;5109475;28;20054;-64
2022/09/30 04:40:57;;;;;;;0.20;0.20;;;;;;;;;;5106221;28;20032;-62
2022/09/30 04:43:23;;;;;;;0.68;0.47;;;;;;;;;;5099992;27;20043;-64
2022/09/30 04:45:54;;;;;;;0.90;0.30;;;;;;;;;;5100983;28;20480;-67
2022/09/30 04:48:23;;;;;;;1.88;0.40;;;;;;;;;;5099376;28;20035;-67
2022/09/30 04:50:49;;;;;;;4.00;0.50;;;;;;;;;;5096639;28;20048;-63
2022/09/30 04:53:18;;;;;;;2.38;0.50;;;;;;;;;;5101236;27;20408;-67
2022/09/30 04:55:44;;;;;;;1.95;0.43;;;;;;;;;;5091646;28;20517;-65
2022/09/30 04:58:11;;;;;;;4.43;1.20;;;;;;;;;;5095869;28;20126;-70
2022/09/30 05:00:37;;;;;;;1.67;0.57;;;;;;;;;;5102154;28;20625;-66
2022/09/30 05:03:04;;;;;;;2.25;0.77;;;;;;;;;;5097174;28;20059;-65
2022/09/30 05:05:30;;;;;;;1.98;0.75;;;;;;;;;;5104722;28;20504;-66
2022/09/30 05:08:03;;;;;;;0.52;0.38;;;;;;;;;;5106813;28;20239;-65
2022/09/30 05:10:30;;;;;;;1.35;0.40;;;;;;;;;;5100261;28;20959;-63
2022/09/30 05:12:56;;;;;;;0.82;0.32;;;;;;;;;;5100045;28;20044;-68
2022/09/30 05:15:23;;;;;;;2.15;0.30;;;;;;;;;;5099716;28;20100;-70
2022/09/30 05:17:49;;;;;;;1.35;0.43;;;;;;;;;;5104452;28;20087;-65
2022/09/30 05:20:15;;;;;;;1.33;0.30;;;;;;;;;;5098343;28;20047;-65
2022/09/30 05:22:41;;;;;;;3.55;0.32;;;;;;;;;;5099524;28;20047;-67
2022/09/30 05:25:07;;;;;;;7.10;0.80;;;;;;;;;;5101188;28;20047;-64
2022/09/30 05:27:33;;;;;;;7.40;0.38;;;;;;;;;;5099228;28;20151;-69
2022/09/30 05:29:59;;;;;;;2.83;0.40;;;;;;;;;;5102112;28;20044;-65
2022/09/30 05:32:25;;;;;;;0.60;0.40;;;;;;;;;;5104319;28;20088;-64
2022/09/30 05:34:51;;;;;;;3.65;0.65;;;;;;;;;;5102413;28;20043;-65
2022/09/30 05:37:17;;;;;;;1.67;0.50;;;;;;;;;;5104407;28;20058;-65
2022/09/30 05:39:43;;;;;;;0.95;0.60;;;;;;;;;;5095253;28;20112;-68
2022/09/30 05:42:08;;;;;;;4.25;0.70;;;;;;;;;;5103657;28;20051;-66
2022/09/30 05:44:34;;;;;;;3.85;0.70;;;;;;;;;;5098283;28;20048;-69
2022/09/30 05:47:00;;;;;;;3.60;0.60;;;;;;;;;;5093004;27;20067;-68
2022/09/30 05:49:27;;;;;;;2.20;0.50;;;;;;;;;;5103267;28;20101;-66
2022/09/30 05:51:53;;;;;;;2.30;0.70;;;;;;;;;;5100101;28;20048;-67
2022/09/30 05:54:19;;;;;;;3.13;0.50;;;;;;;;;;5093975;28;20040;-69
2022/09/30 05:56:44;;;;;;;2.65;0.63;;;;;;;;;;5100789;28;20135;-63
2022/09/30 05:59:10;;;;;;;1.95;0.60;;;;;;;;;;5098745;28;20059;-70
2022/09/30 06:01:36;;;;;;;3.40;0.85;;;;;;;;;;5098667;28;20040;-65
2022/09/30 06:04:02;;;;;;;3.78;0.63;;;;;;;;;;5096695;28;20044;-63
2022/09/30 06:06:29;;;;;;;3.00;0.68;;;;;;;;;;5099781;28;20078;-68
2022/09/30 06:08:55;;;;;;;2.13;1.05;;;;;;;;;;5094426;28;20047;-67
2022/09/30 06:11:23;;;;;;;4.07;1.67;;;;;;;;;;5101044;28;20039;-68
2022/09/30 06:13:51;;;;;;;3.78;0.93;;;;;;;;;;5096929;28;20044;-68
2022/09/30 06:16:17;;;;;;;4.55;0.98;;;;;;;;;;5100610;28;20493;-66
2022/09/30 06:18:44;;;;;;;1.95;0.90;;;;;;;;;;5096001;27;20059;-65
2022/09/30 06:21:13;;;;;;;6.65;1.00;;;;;;;;;;5100121;28;20061;-62
2022/09/30 06:23:39;;;;;;;5.60;2.28;;;;;;;;;;5098616;28;20079;-67
2022/09/30 06:26:07;;;;;;;3.05;0.70;;;;;;;;;;5093649;28;20096;-69
2022/09/30 06:28:34;;;;;;;13.57;1.90;;;;;;;;;;5095097;28;20075;-69
2022/09/30 06:31:01;;;;;;;1.13;0.88;;;;;;;;;;5096982;28;20188;-70
2022/09/30 06:33:27;;;;;;;3.60;0.73;;;;;;;;;;5088677;28;20055;-67
2022/09/30 06:35:54;;;;;;;2.10;0.90;;;;;;;;;;5094237;28;20054;-71
2022/09/30 06:38:22;;;;;;;1.20;0.80;;;;;;;;;;5095730;28;20051;-66
2022/09/30 06:40:48;;;;;;;1.73;0.80;;;;;;;;;;5092858;28;20040;-72
2022/09/30 06:43:16;;;;;;;1.27;0.70;;;;;;;;;;5103195;28;20044;-61
2022/09/30 06:45:44;;;;;;;5.35;1.38;;;;;;;;;;5106470;28;20068;-61
2022/09/30 06:48:11;;;;;;;3.00;0.90;;;;;;;;;;5106487;28;20112;-63
2022/09/30 06:50:38;;;;;;;3.33;1.00;;;;;;;;;;5101057;28;20103;-62
2022/09/30 06:53:07;;;;;;;2.65;1.08;;;;;;;;;;5098439;28;20419;-61
2022/09/30 06:55:37;;;;;;;2.13;0.80;;;;;;;;;;5106152;28;20040;-64
2022/09/30 06:58:07;;;;;;;5.38;0.85;;;;;;;;;;5104999;28;20051;-61
2022/09/30 07:00:33;;;;;;;2.08;0.52;;;;;;;;;;5096580;28;20050;-63
2022/09/30 07:02:59;;;;;;;2.35;0.77;;;;;;;;;;5103905;27;20056;-63
2022/09/30 07:05:25;;;;;;;8.35;0.88;;;;;;;;;;5100508;28;20078;-61
2022/09/30 07:07:52;;;;;;;1.77;0.60;;;;;;;;;;5098356;28;20409;-65
2022/09/30 07:10:19;;;;;;;2.22;0.70;;;;;;;;;;5098355;28;20059;-66
2022/09/30 07:12:50;;;;;;;4.15;0.95;;;;;;;;;;5098608;28;20059;-61
2022/09/30 07:15:16;;;;;;;1.30;0.50;;;;;;;;;;5094582;28;20043;-64
2022/09/30 07:17:42;;;;;;;1.55;0.60;;;;;;;;;;5100512;28;20051;-63
2022/09/30 07:20:08;;;;;;;1.35;0.52;;;;;;;;;;5103217;28;20105;-63
2022/09/30 07:22:34;;;;;;;4.32;0.65;;;;;;;;;;5101082;27;20552;-62
2022/09/30 07:25:03;;;;;;;5.78;0.75;;;;;;;;;;5104314;28;20032;-66
2022/09/30 07:27:32;;;;;;;9.18;1.00;;;;;;;;;;5103299;28;20075;-66
2022/09/30 07:29:58;;;;;;;4.40;0.65;;;;;;;;;;5094215;28;20051;-64
2022/09/30 07:32:24;;;;;;;6.80;0.70;;;;;;;;;;5097228;28;20047;-61
2022/09/30 07:34:50;;;;;;;4.70;1.00;;;;;;;;;;5099515;28;20248;-66
2022/09/30 07:37:18;;;;;;;0.95;0.70;;;;;;;;;;5096360;28;20394;-62
2022/09/30 07:39:46;;;;;;;7.43;0.70;;;;;;;;;;5086148;28;20414;-62
2022/09/30 07:42:15;;;;;;;1.13;0.43;;;;;;;;;;5098764;28;20123;-62
2022/09/30 07:44:42;;;;;;;4.15;0.57;;;;;;;;;;5093415;28;20059;-65
2022/09/30 07:47:13;;;;;;;4.32;0.70;;;;;;;;;;5104426;28;20047;-61
2022/09/30 07:49:41;;;;;;;2.78;0.70;;;;;;;;;;5101517;28;20075;-65
2022/09/30 07:52:07;;;;;;;11.07;1.00;;;;;;;;;;5104399;28;20039;-63
2022/09/30 07:54:33;;;;;;;2.95;0.70;;;;;;;;;;5101200;28;20543;-69
2022/09/30 07:57:02;;;;;;;6.32;0.80;;;;;;;;;;5102880;28;20366;-65
2022/09/30 07:59:30;;;;;;;1.83;0.57;;;;;;;;;;5087907;28;20040;-66
2022/09/30 08:01:56;;;;;;;5.60;0.82;;;;;;;;;;5095996;28;20044;-65
2022/09/30 08:04:24;;;;;;;3.78;0.98;;;;;;;;;;5098982;28;20067;-60
2022/09/30 08:06:56;;;;;;;5.60;0.90;;;;;;;;;;5101815;28;20052;-62
2022/09/30 08:09:24;;;;;;;4.85;0.60;;;;;;;;;;5104001;28;20096;-63
2022/09/30 08:11:50;;;;;;;3.95;1.00;;;;;;;;;;5101446;28;20051;-67
2022/09/30 08:14:21;;;;;;;1.75;0.65;;;;;;;;;;5102319;28;20053;-67
2022/09/30 08:16:47;;;;;;;2.17;0.70;;;;;;;;;;5098196;28;20100;-64
2022/09/30 08:19:15;;;;;;;2.65;0.60;;;;;;;;;;5097379;28;20040;-59
2022/09/30 08:21:42;;;;;;;1.92;0.75;;;;;;;;;;5103023;28;20047;-61
2022/09/30 08:24:09;;;;;;;2.17;0.88;;;;;;;;;;5101222;28;20075;-63
2022/09/30 08:26:36;;;;;;;1.02;0.50;;;;;;;;;;5106729;28;20055;-64
2022/09/30 08:29:02;;;;;;;2.95;0.50;;;;;;;;;;5108365;28;20104;-62
2022/09/30 08:31:28;;;;;;;1.70;0.50;;;;;;;;;;5098182;28;20058;-64
2022/09/30 08:33:55;;;;;;;4.50;0.80;;;;;;;;;;5100367;28;20049;-63
2022/09/30 08:36:23;;;;;;;1.85;0.70;;;;;;;;;;5103693;28;20492;-66
2022/09/30 08:38:49;;;;;;;2.03;0.40;;;;;;;;;;5099856;28;20044;-59
2022/09/30 08:41:37;;;;;;;0.90;0.60;;;;;;;;;;5107234;28;20060;-70
2022/09/30 08:44:18;;;;;;;3.42;0.60;;;;;;;;;;5092595;28;20048;-63
2022/09/30 08:46:58;;;;;;;2.78;0.50;;;;;;;;;;5089364;28;20139;-66
2022/09/30 08:49:48;;;;;;;13.73;1.10;;;;;;;;;;5102624;28;20496;-66
2022/09/30 08:52:22;;;;;;;1.23;0.50;;;;;;;;;;5100637;28;20042;-67
2022/09/30 08:54:52;;;;;;;3.78;0.45;;;;;;;;;;5101159;28;20040;-70
2022/09/30 08:57:19;;;;;;;4.80;0.90;;;;;;;;;;5110542;28;20378;-66
2022/09/30 08:59:48;;;;;;;2.38;0.82;;;;;;;;;;5099114;28;20051;-65
2022/09/30 09:02:26;;;;;;;1.50;0.73;;;;;;;;;;5110879;28;20051;-69
2022/09/30 09:04:56;;;;;;;3.70;0.68;;;;;;;;;;5110076;28;20101;-62
2022/09/30 09:07:57;;;;;;;1.25;0.55;;;;;;;;;;5106030;28;20525;-66
2022/09/30 09:10:23;;;;;;;1.92;0.68;;;;;;;;;;5039415;28;20811;-63
2022/09/30 09:13:02;;;;;;;2.97;0.95;;;;;;;;;;5055288;28;20083;-63
2022/09/30 09:15:43;;;;;;;1.75;0.70;;;;;;;;;;5055791;28;20056;-63
2022/09/30 09:18:26;;;;;;;3.10;0.90;;;;;;;;;;5049857;28;20076;-65
2022/09/30 09:21:08;;;;;;;2.88;0.90;;;;;;;;;;5048953;28;20411;-66
2022/09/30 09:23:34;;;;;;;2.42;0.70;;;;;;;;;;5051044;28;20458;-62
2022/09/30 09:26:03;;;;;;;2.03;0.60;;;;;;;;;;5052738;28;20141;-63
2022/09/30 09:28:44;;;;;;;2.08;0.70;;;;;;;;;;5044594;28;20068;-68
2022/09/30 09:31:18;;;;;;;3.42;0.52;;;;;;;;;;5039692;28;20100;-63
2022/09/30 09:33:44;;;;;;;1.42;0.50;;;;;;;;;;5046518;28;20103;-63
2022/09/30 09:36:21;;;;;;;2.15;0.70;;;;;;;;;;5046039;28;20494;-60
2022/09/30 09:39:11;;;;;;;2.03;0.60;;;;;;;;;;5041871;28;20055;-63
2022/09/30 09:41:42;;;;;;;6.07;0.70;;;;;;;;;;5054389;28;20048;-70
2022/09/30 09:44:37;;;;;;;2.80;0.70;;;;;;;;;;5035309;28;20052;-65
2022/09/30 09:47:12;;;;;;;2.42;0.60;;;;;;;;;;5077965;28;20048;-63
2022/09/30 09:50:02;;;;;;;2.72;0.52;;;;;;;;;;5098364;28;20207;-68
2022/09/30 09:52:50;;;;;;;1.15;0.40;;;;;;;;;;5102872;28;20505;-71
2022/09/30 09:55:20;;;;;;;1.55;0.40;;;;;;;;;;5105016;28;20047;-66
2022/09/30 09:57:46;;;;;;;4.00;0.60;;;;;;;;;;5107012;28;20082;-69
2022/09/30 10:03:19;;;;;;;4.13;0.70;;;;;;;;;;5107181;28;20051;-71
2022/09/30 10:06:08;;;;;;;3.40;0.68;;;;;;;;;;5105397;28;20138;-73
2022/09/30 10:08:38;;;;;;;1.30;0.80;;;;;;;;;;5103794;28;20127;-72
2022/09/30 10:11:19;;;;;;;3.00;0.60;;;;;;;;;;5102442;28;20039;-67
2022/09/30 10:13:45;;;;;;;2.75;0.60;;;;;;;;;;5097253;28;20074;-67
2022/09/30 10:16:34;;;;;;;1.15;0.50;;;;;;;;;;5100211;28;20047;-62
2022/09/30 10:19:15;;;;;;;5.00;0.60;;;;;;;;;;5098940;28;20127;-68
2022/09/30 10:21:41;;;;;;;3.33;0.70;;;;;;;;;;5102713;28;20045;-68
2022/09/30 10:24:29;;;;;;;2.58;0.80;;;;;;;;;;5103266;28;20055;-68
2022/09/30 10:26:55;;;;;;;3.58;0.82;;;;;;;;;;5109273;28;20043;-64
2022/09/30 10:29:35;;;;;;;1.23;0.60;;;;;;;;;;5105802;28;20580;-65
2022/09/30 10:32:07;;;;;;;4.13;1.60;;;;;;;;;;5105287;28;20809;-65
2022/09/30 10:34:37;;;;;;;2.45;0.77;;;;;;;;;;5104505;28;20135;-62
2022/09/30 10:37:17;;;;;;;2.67;0.50;;;;;;;;;;5104242;28;20476;-69
2022/09/30 10:39:49;;;;;;;1.05;0.38;;;;;;;;;;5110932;27;20389;-68
2022/09/30 10:42:17;;;;;;;1.10;0.35;;;;;;;;;;5099433;27;20047;-66
2022/09/30 10:44:45;;;;;;;2.13;0.60;;;;;;;;;;5106891;28;20127;-65
2022/09/30 10:47:20;;;;;;;2.70;0.45;;;;;;;;;;5102517;28;20062;-69
2022/09/30 10:49:46;;;;;;;2.53;0.60;;;;;;;;;;5106263;28;20150;-63
2022/09/30 10:52:21;;;;;;;3.38;0.60;;;;;;;;;;5105478;28;20062;-67
2022/09/30 10:54:55;;;;;;;1.90;0.40;;;;;;;;;;5095145;28;20047;-64
2022/09/30 10:57:34;;;;;;;5.03;0.70;;;;;;;;;;5097148;28;20478;-66
2022/09/30 11:00:07;;;;;;;3.63;0.43;;;;;;;;;;5105461;28;20032;-65
2022/09/30 11:02:41;;;;;;;4.07;0.68;;;;;;;;;;5103676;28;20099;-66
2022/09/30 11:05:30;;;;;;;2.65;0.63;;;;;;;;;;5098424;28;20854;-63
2022/09/30 11:08:02;;;;;;;1.92;0.45;;;;;;;;;;5099008;28;20055;-65
2022/09/30 11:10:37;;;;;;;0.90;0.30;;;;;;;;;;5108520;28;20048;-66
2022/09/30 11:13:07;;;;;;;0.90;0.57;;;;;;;;;;5104746;28;20116;-62
2022/09/30 11:15:44;;;;;;;6.63;0.55;;;;;;;;;;5103291;28;20135;-67
2022/09/30 11:18:10;;;;;;;1.45;0.57;;;;;;;;;;5101991;28;20058;-66
2022/09/30 11:20:52;;;;;;;1.17;0.40;;;;;;;;;;5099893;28;20048;-65
2022/09/30 11:23:22;;;;;;;6.78;0.50;;;;;;;;;;5096000;28;20111;-64
2022/09/30 11:26:03;;;;;;;2.22;0.60;;;;;;;;;;5102465;28;20075;-68
2022/09/30 11:28:35;;;;;;;1.30;0.40;;;;;;;;;;5098586;28;20130;-62
2022/09/30 11:31:06;;;;;;;2.33;0.60;;;;;;;;;;5107480;28;20496;-69
2022/09/30 11:33:42;;;;;;;1.45;0.68;;;;;;;;;;5105450;28;20307;-64
2022/09/30 11:36:20;;;;;;;1.17;0.55;;;;;;;;;;5110376;28;20070;-65
2022/09/30 11:38:55;;;;;;;2.55;0.45;;;;;;;;;;5103199;28;20047;-63
2022/09/30 11:41:43;;;;;;;1.77;0.70;;;;;;;;;;5108887;27;20054;-68
2022/09/30 11:44:43;;;;;;;2.97;0.80;;;;;;;;;;5105517;27;20131;-70
2022/09/30 11:47:37;;;;;;;1.38;0.40;;;;;;;;;;5107676;28;20450;-63
2022/09/30 11:50:09;;;;;;;2.35;0.57;;;;;;;;;;5103192;28;20679;-64
2022/09/30 11:52:58;;;;;;;1.45;0.60;;;;;;;;;;5093045;28;20047;-69
2022/09/30 11:55:49;;;;;;;1.75;0.63;;;;;;;;;;5104706;28;20468;-66
2022/09/30 11:58:31;;;;;;;1.42;0.45;;;;;;;;;;5103785;28;20040;-65
2022/09/30 12:01:05;;;;;;;1.63;0.50;;;;;;;;;;5107329;28;20050;-63
2022/09/30 12:03:37;;;;;;;1.98;0.52;;;;;;;;;;5104335;28;20074;-64
2022/09/30 12:06:27;;;;;;;1.73;0.90;;;;;;;;;;5105001;28;20051;-65
2022/09/30 12:08:58;;;;;;;3.67;1.02;;;;;;;;;;5098806;28;20134;-65
2022/09/30 12:11:45;;;;;;;8.27;0.98;;;;;;;;;;5103054;28;20119;-66
2022/09/30 12:14:22;;;;;;;4.72;0.80;;;;;;;;;;5102455;28;20124;-64
2022/09/30 12:16:49;;;;;;;2.20;0.57;;;;;;;;;;5098861;28;20052;-63
2022/09/30 12:19:20;;;;;;;1.27;0.50;;;;;;;;;;5108875;28;20054;-67
2022/09/30 12:22:25;;;;;;;1.98;0.98;;;;;;;;;;5102363;28;20055;-63
2022/09/30 12:24:51;;;;;;;1.33;0.70;;;;;;;;;;5093927;28;20044;-68
2022/09/30 12:27:39;;;;;;;3.08;0.52;;;;;;;;;;5109803;28;20398;-64
2022/09/30 12:30:17;;;;;;;0.65;0.40;;;;;;;;;;5104035;28;20122;-65
2022/09/30 12:33:09;;;;;;;2.63;0.82;;;;;;;;;;5100553;28;20583;-70
2022/09/30 12:35:36;;;;;;;0.45;0.43;;;;;;;;;;5100596;28;20048;-66
2022/09/30 12:38:40;;;;;;;0.75;0.50;;;;;;;;;;5103092;28;20063;-70
2022/09/30 12:41:17;;;;;;;2.15;1.00;;;;;;;;;;5109043;27;20082;-66
2022/09/30 12:43:55;;;;;;;2.15;1.00;;;;;;;;;;5109301;28;20136;-64
2022/09/30 12:46:46;;;;;;;1.63;0.73;;;;;;;;;;5110939;28;20051;-68
2022/09/30 12:49:18;;;;;;;2.85;0.82;;;;;;;;;;5097588;28;20047;-66
2022/09/30 12:51:49;;;;;;;5.45;2.00;;;;;;;;;;5110170;28;20052;-64
2022/09/30 12:54:20;;;;;;;3.55;0.80;;;;;;;;;;5097508;28;20136;-67
2022/09/30 12:56:53;;;;;;;4.15;0.90;;;;;;;;;;5110314;28;20396;-66
2022/09/30 12:59:25;;;;;;;4.28;1.10;;;;;;;;;;5105969;28;20497;-70
2022/09/30 13:01:51;;;;;;;3.00;0.70;;;;;;;;;;5104774;28;20124;-64
2022/09/30 13:04:35;;;;;;;2.22;0.60;;;;;;;;;;5106467;28;20456;-68
2022/09/30 13:07:01;;;;;;;;;;;;;;;;;;5100396;28;20140;-68
2022/09/30 13:09:34;;;;;;;2.47;1.10;;;;;;;;;;5102221;28;20018;-69
2022/09/30 13:12:00;;;;;;;0.60;0.40;;;;;;;;;;5109913;28;20051;-68
2022/09/30 13:14:33;;;;;;;1.58;0.60;;;;;;;;;;5102987;28;20048;-69
2022/09/30 13:17:05;;;;;;;3.15;1.00;;;;;;;;;;5109425;28;20134;-67
2022/09/30 13:19:35;;;;;;;0.82;0.70;;;;;;;;;;5109682;28;20179;-63
2022/09/30 13:24:57;;;;;;;;;;;;;;;;;;5103829;28;20158;-71
2022/09/30 13:27:39;;;;;;;1.45;0.57;;;;;;;;;;5104319;28;19923;-63
2022/09/30 13:30:14;;;;;;;2.28;0.60;;;;;;;;;;5103914;28;20051;-65
2022/09/30 13:33:26;;;;;;;3.20;0.60;;;;;;;;;;5102162;28;20051;-69
2022/09/30 13:35:57;;;;;;;5.28;1.00;;;;;;;;;;5103095;28;20103;-65
2022/09/30 13:38:34;;;;;;;6.25;1.10;;;;;;;;;;5109761;27;20035;-69
2022/09/30 13:41:13;;;;;;;2.72;1.30;;;;;;;;;;5107238;27;20122;-67
2022/09/30 13:44:01;;;;;;;4.95;1.15;;;;;;;;;;5095722;28;20065;-68
2022/09/30 13:46:34;;;;;;;13.77;1.05;;;;;;;;;;5104421;28;20044;-62
2022/09/30 13:49:06;;;;;;;6.25;1.48;;;;;;;;;;5102899;28;20039;-64
2022/09/30 13:51:33;;;;;;;10.13;1.02;;;;;;;;;;5106058;28;20460;-62
2022/09/30 13:54:11;;;;;;;6.25;0.90;;;;;;;;;;5100377;28;20578;-64
2022/09/30 13:56:39;;;;;;;4.22;1.20;;;;;;;;;;5100898;28;20048;-65
2022/09/30 13:59:20;;;;;;;5.25;1.00;;;;;;;;;;5094696;28;20078;-63
2022/09/30 14:02:19;;;;;;;3.33;0.98;;;;;;;;;;5101607;28;20047;-69
2022/09/30 14:05:04;;;;;;;6.72;1.13;;;;;;;;;;5104294;28;20514;-62
2022/09/30 14:07:49;;;;;;;6.57;1.27;;;;;;;;;;5100032;28;20051;-64
2022/09/30 14:10:35;;;;;;;4.53;1.10;;;;;;;;;;5103227;28;20035;-66
2022/09/30 14:13:40;;;;;;;6.30;0.90;;;;;;;;;;5088290;28;20055;-70
2022/09/30 14:16:48;;;;;;;2.15;0.80;;;;;;;;;;5060442;28;20557;-66
2022/09/30 14:19:43;;;;;;;3.83;1.00;;;;;;;;;;5059023;28;20438;-64
2022/09/30 14:22:11;;;;;;;3.45;1.00;;;;;;;;;;5055903;28;20055;-63
2022/09/30 14:24:39;;;;;;;2.58;1.23;;;;;;;;;;5042920;28;20350;-71
2022/09/30 14:27:22;;;;;;;2.42;0.90;;;;;;;;;;5059706;28;20152;-66
2022/09/30 14:30:03;;;;;;;3.40;0.93;;;;;;;;;;5061845;28;20428;-64
2022/09/30 14:32:32;;;;;;;2.65;0.77;;;;;;;;;;5059929;28;20055;-70
2022/09/30 14:35:03;;;;;;;5.97;0.70;;;;;;;;;;5064091;28;20074;-63
2022/09/30 14:37:33;;;;;;;3.83;0.90;;;;;;;;;;5062957;28;20102;-67
2022/09/30 14:40:00;;;;;;;4.53;0.90;;;;;;;;;;5063070;28;20394;-67
2022/09/30 14:42:33;;;;;;;2.45;0.90;;;;;;;;;;5063367;28;20048;-72
2022/09/30 14:45:03;;;;;;;3.78;0.63;;;;;;;;;;5063427;28;20202;-67
2022/09/30 14:47:48;;;;;;;4.55;0.90;;;;;;;;;;5062664;28;20071;-67
2022/09/30 14:50:23;;;;;;;5.38;1.13;;;;;;;;;;5085073;28;20071;-64
2022/09/30 14:52:54;;;;;;;4.10;1.00;;;;;;;;;;5099483;28;20060;-66
2022/09/30 14:55:29;;;;;;;3.42;0.80;;;;;;;;;;5100389;28;20085;-72
2022/09/30 14:58:27;;;;;;;4.03;1.13;;;;;;;;;;5104990;28;20063;-70
2022/09/30 15:01:00;;;;;;;3.83;1.05;;;;;;;;;;5103285;28;20047;-64
2022/09/30 15:03:27;;;;;;;;;;;;;;;;;;5102519;28;20059;-66
2022/09/30 15:05:53;;;;;;;5.93;1.05;;;;;;;;;;5106958;28;19923;-67
2022/09/30 15:08:21;;;;;;;2.75;0.88;;;;;;;;;;5104343;28;20091;-69
2022/09/30 15:10:53;;;;;;;2.45;0.68;;;;;;;;;;5113406;28;20047;-69
2022/09/30 15:13:30;;;;;;;2.10;0.70;;;;;;;;;;5108359;28;20051;-66
2022/09/30 15:15:57;;;;;;;3.95;1.00;;;;;;;;;;5097801;28;20724;-66
2022/09/30 15:18:32;;;;;;;4.10;0.90;;;;;;;;;;5100734;28;20040;-67
2022/09/30 15:21:07;;;;;;;4.70;0.90;;;;;;;;;;5102921;28;20084;-68
2022/09/30 15:23:36;;;;;;;6.53;0.82;;;;;;;;;;5097953;28;20055;-66
2022/09/30 15:26:02;;;;;;;5.47;0.90;;;;;;;;;;5103617;28;20035;-67
2022/09/30 15:28:30;;;;;;;8.40;1.02;;;;;;;;;;5102392;28;20047;-63